Time;durP1;ratioP1;P1;durP2;ratioP2;P2;SDS_P1;SDS_P2;PMS_P1;PMS_P2;Temp;Humidity;BMP_temperature;BMP_pressure;BME280_temperature;BME280_humidity;BME280_pressure;Samples;Min_cycle;Max_cycle;Signal;HPM_P1;HPM_P2
2023/08/28 00:00:16;;;;;;;12.10;9.50;;;;;;;23.94;76.02;99093.65;105411;1258;69013;-70
2023/08/28 00:02:44;;;;;;;13.60;10.40;;;;;;;23.99;76.22;99095.05;105525;1257;72531;-70
2023/08/28 00:05:12;;;;;;;15.10;10.40;;;;;;;23.96;76.17;99095.98;105519;1255;59960;-73
2023/08/28 00:07:39;;;;;;;12.80;11.00;;;;;;;23.93;76.14;99097.83;105533;1255;60906;-70
2023/08/28 00:10:07;;;;;;;16.70;11.40;;;;;;;23.90;76.15;99105.48;105582;1259;72194;-71
2023/08/28 00:12:40;;;;;;;12.10;10.50;;;;;;;23.87;76.29;99107.47;105448;1269;70213;-72
2023/08/28 00:15:08;;;;;;;;;;;;;;;23.89;75.96;99113.18;105626;1254;72522;-72
2023/08/28 00:17:38;;;;;;;19.90;11.40;;;;;;;23.89;76.06;99110.95;105594;1258;59716;-70
2023/08/28 00:20:09;;;;;;;12.50;10.90;;;;;;;23.84;76.00;99108.02;105545;1258;60089;-73
2023/08/28 00:22:37;;;;;;;19.80;12.10;;;;;;;23.78;76.07;99107.83;105582;1257;73126;-73
2023/08/28 00:25:06;;;;;;;12.90;11.20;;;;;;;23.74;76.06;99100.98;105639;1260;70906;-71
2023/08/28 00:27:34;;;;;;;14.10;11.20;;;;;;;23.71;76.25;99094.91;105645;1260;73124;-72
2023/08/28 00:30:03;;;;;;;11.90;9.60;;;;;;;23.76;76.44;99088.04;105663;1260;60356;-73
2023/08/28 00:32:31;;;;;;;18.20;11.10;;;;;;;23.82;76.30;99089.32;105508;1259;59742;-74
2023/08/28 00:34:58;;;;;;;14.20;10.60;;;;;;;23.81;76.25;99087.89;105358;1259;72719;-73
2023/08/28 00:37:26;;;;;;;15.90;10.90;;;;;;;23.76;76.31;99091.17;105370;1260;68927;-73
2023/08/28 00:39:53;;;;;;;14.10;10.70;;;;;;;23.72;76.43;99095.02;105341;1260;71640;-73
2023/08/28 00:42:21;;;;;;;12.50;10.20;;;;;;;23.69;77.12;99095.88;105439;1260;62011;-73
2023/08/28 00:44:48;;;;;;;16.50;10.90;;;;;;;23.73;77.36;99091.39;105544;1258;59994;-72
2023/08/28 00:47:16;;;;;;;12.90;9.70;;;;;;;23.78;77.76;99091.52;105770;1259;71624;-73
2023/08/28 00:49:44;;;;;;;13.20;10.50;;;;;;;23.76;77.40;99094.87;105395;1254;70186;-72
2023/08/28 00:52:11;;;;;;;15.00;11.70;;;;;;;23.70;77.26;99095.56;105332;1254;72636;-71
2023/08/28 00:54:39;;;;;;;13.40;11.90;;;;;;;23.61;77.15;99099.19;105655;1254;60538;-74
2023/08/28 00:57:08;;;;;;;16.60;12.30;;;;;;;23.52;77.39;99099.56;105687;1257;60341;-74
2023/08/28 00:59:35;;;;;;;15.20;10.70;;;;;;;23.52;77.65;99101.56;105536;1255;72612;-72
2023/08/28 01:02:03;;;;;;;15.40;11.30;;;;;;;23.55;77.91;99101.24;105550;1259;70967;-73
2023/08/28 01:04:31;;;;;;;15.00;10.90;;;;;;;23.53;77.83;99100.21;105757;1257;71116;-73
2023/08/28 01:07:02;;;;;;;14.40;11.10;;;;;;;23.49;77.92;99101.95;105700;1257;60459;-72
2023/08/28 01:09:40;;;;;;;18.40;11.50;;;;;;;23.47;77.76;99102.30;105616;1256;60952;-69
2023/08/28 01:12:51;;;;;;;15.20;11.40;;;;;;;23.47;77.93;99098.67;105501;1254;73839;-70
2023/08/28 01:15:20;;;;;;;14.20;10.80;;;;;;;23.53;77.90;99095.92;105860;1257;72243;-70
2023/08/28 01:17:54;;;;;;;15.00;11.00;;;;;;;23.54;77.76;99099.66;105544;1254;72706;-70
2023/08/28 01:20:24;;;;;;;16.90;11.30;;;;;;;23.52;77.95;99102.27;105527;1260;60418;-69
2023/08/28 01:22:57;;;;;;;12.70;11.30;;;;;;;23.51;78.24;99104.86;105484;1259;60357;-70
2023/08/28 01:25:25;;;;;;;20.40;14.20;;;;;;;23.52;77.77;99106.77;105611;1260;72378;-71
2023/08/28 01:27:53;;;;;;;16.20;14.00;;;;;;;23.60;77.08;99104.60;105798;1257;70251;-71
2023/08/28 01:30:21;;;;;;;19.30;16.00;;;;;;;23.65;76.42;99105.43;105696;1257;72673;-73
2023/08/28 01:32:48;;;;;;;18.80;16.00;;;;;;;23.68;76.25;99105.54;105746;1254;60453;-71
2023/08/28 01:35:23;;;;;;;19.90;17.00;;;;;;;23.73;76.11;99104.62;105693;1264;60747;-74
2023/08/28 01:38:17;;;;;;;18.10;16.00;;;;;;;23.78;76.23;99108.10;105672;1260;73849;-72
2023/08/28 01:40:54;;;;;;;20.70;16.40;;;;;;;23.90;75.61;99101.77;105627;1254;70023;-71
2023/08/28 01:43:23;;;;;;;22.00;18.20;;;;;;;23.96;75.37;99101.98;105555;1260;71429;-72
2023/08/28 01:45:51;;;;;;;19.50;17.50;;;;;;;23.97;75.43;99098.75;105749;1257;60458;-71
2023/08/28 01:48:18;;;;;;;19.80;17.80;;;;;;;23.98;75.48;99098.48;105516;1260;60488;-73
2023/08/28 01:50:48;;;;;;;23.50;17.80;;;;;;;23.98;75.25;99098.15;105491;1254;73936;-73
2023/08/28 01:53:15;;;;;;;19.00;17.00;;;;;;;23.98;75.16;99099.67;105542;1258;70536;-71
2023/08/28 01:55:45;;;;;;;20.00;17.90;;;;;;;24.04;75.19;99097.55;105707;1254;71276;-72
2023/08/28 01:58:14;;;;;;;21.30;18.10;;;;;;;24.10;75.46;99100.48;106631;1256;60430;-68
2023/08/28 02:00:42;;;;;;;21.10;18.50;;;;;;;24.11;75.14;99104.43;105738;1254;60553;-72
2023/08/28 02:03:10;;;;;;;20.50;18.20;;;;;;;24.10;75.23;99105.84;106051;1259;74298;-72
2023/08/28 02:05:37;;;;;;;18.30;16.60;;;;;;;24.08;75.25;99106.65;106618;1257;67932;-73
2023/08/28 02:08:05;;;;;;;22.10;19.30;;;;;;;24.07;75.39;99104.11;107675;1255;72406;-71
2023/08/28 02:10:32;;;;;;;22.60;18.40;;;;;;;24.07;75.42;99101.77;108081;1254;62086;-72
2023/08/28 02:13:00;;;;;;;19.60;17.70;;;;;;;24.14;75.07;99099.27;108055;1252;60050;-70
2023/08/28 02:15:28;;;;;;;21.30;18.90;;;;;;;24.24;74.77;99094.81;105979;1260;72742;-71
2023/08/28 02:17:55;;;;;;;23.60;18.90;;;;;;;24.25;74.60;99089.59;105820;1255;70538;-70
2023/08/28 02:20:22;;;;;;;19.60;17.60;;;;;;;24.26;74.13;99090.14;106949;1254;71426;-73
2023/08/28 02:22:50;;;;;;;22.30;17.70;;;;;;;24.27;73.86;99089.86;105690;1260;61047;-75
2023/08/28 02:25:20;;;;;;;20.70;18.00;;;;;;;24.27;73.77;99091.60;105560;1254;60642;-74
2023/08/28 02:27:49;;;;;;;21.20;17.70;;;;;;;24.26;73.82;99089.38;105561;1260;73939;-73
2023/08/28 02:30:17;;;;;;;19.60;17.50;;;;;;;24.24;73.88;99087.27;105676;1260;69026;-73
2023/08/28 02:32:45;;;;;;;19.10;16.80;;;;;;;24.29;74.13;99082.42;105487;1258;73309;-73
2023/08/28 02:35:13;;;;;;;17.50;15.70;;;;;;;24.32;74.48;99082.38;105424;1257;60428;-73
2023/08/28 02:37:40;;;;;;;19.60;15.70;;;;;;;24.29;74.31;99081.88;105610;1256;60342;-72
2023/08/28 02:40:11;;;;;;;20.00;16.10;;;;;;;24.23;74.42;99079.73;105540;1255;74241;-73
2023/08/28 02:42:38;;;;;;;19.60;16.20;;;;;;;24.17;74.08;99082.01;105662;1254;68822;-72
2023/08/28 02:45:07;;;;;;;17.30;15.60;;;;;;;24.14;73.80;99081.41;105760;1256;72475;-72
2023/08/28 02:47:36;;;;;;;18.40;14.80;;;;;;;24.12;73.49;99081.14;105666;1259;60475;-72
2023/08/28 02:50:04;;;;;;;17.10;15.40;;;;;;;24.13;73.27;99080.34;105614;1260;60588;-71
2023/08/28 02:52:32;;;;;;;20.40;15.20;;;;;;;24.14;73.31;99079.41;105634;1254;71869;-71
2023/08/28 02:55:00;;;;;;;16.40;14.70;;;;;;;24.22;72.88;99081.45;105516;1254;70397;-73
2023/08/28 02:57:27;;;;;;;17.10;14.60;;;;;;;24.28;72.57;99080.58;105607;1258;72670;-71
2023/08/28 02:59:55;;;;;;;18.00;15.80;;;;;;;24.29;72.48;99076.17;105587;1257;60358;-73
2023/08/28 03:02:22;;;;;;;20.00;16.10;;;;;;;24.30;72.46;99072.17;105426;1257;60347;-70
2023/08/28 03:04:50;;;;;;;17.70;16.00;;;;;;;24.29;72.67;99075.64;105554;1256;73026;-70
2023/08/28 03:07:17;;;;;;;18.00;15.30;;;;;;;24.29;72.25;99077.54;105368;1254;70305;-73
2023/08/28 03:09:45;;;;;;;18.50;16.10;;;;;;;24.29;72.21;99073.30;105510;1255;72418;-73
2023/08/28 03:12:13;;;;;;;20.30;17.10;;;;;;;24.28;72.00;99071.84;105535;1253;60473;-72
2023/08/28 03:14:40;;;;;;;19.00;15.30;;;;;;;24.26;72.42;99067.02;105441;1260;60332;-71
2023/08/28 03:17:07;;;;;;;19.00;14.90;;;;;;;24.27;72.63;99061.36;105679;1254;72105;-71
2023/08/28 03:19:36;;;;;;;17.50;15.60;;;;;;;24.30;72.37;99060.02;105718;1253;68683;-71
2023/08/28 03:22:04;;;;;;;20.70;15.90;;;;;;;24.30;72.17;99061.26;105486;1257;72723;-72
2023/08/28 03:24:31;;;;;;;16.20;14.50;;;;;;;24.31;72.06;99061.30;105748;1254;60546;-72
2023/08/28 03:27:01;;;;;;;18.50;14.20;;;;;;;24.34;71.77;99058.42;105594;1257;60536;-72
2023/08/28 03:29:28;;;;;;;16.70;14.70;;;;;;;24.38;71.48;99055.86;105654;1252;73875;-72
2023/08/28 03:31:56;;;;;;;17.60;14.10;;;;;;;24.41;71.31;99055.47;105532;1257;69153;-73
2023/08/28 03:34:24;;;;;;;17.50;14.40;;;;;;;24.44;71.31;99057.25;105369;1260;72715;-73
2023/08/28 03:36:51;;;;;;;16.30;13.80;;;;;;;24.52;71.05;99057.19;105604;1257;61049;-73
2023/08/28 03:39:18;;;;;;;19.30;13.40;;;;;;;24.58;70.64;99049.90;105480;1254;60542;-73
2023/08/28 03:41:46;;;;;;;15.30;13.40;;;;;;;24.60;70.78;99049.73;105467;1257;74270;-74
2023/08/28 03:44:13;;;;;;;17.70;14.50;;;;;;;24.62;70.44;99047.02;105454;1253;70001;-72
2023/08/28 03:46:41;;;;;;;15.90;13.00;;;;;;;24.65;70.32;99041.95;105525;1256;71309;-73
2023/08/28 03:49:08;;;;;;;15.30;13.30;;;;;;;24.69;70.07;99037.27;105479;1257;60774;-74
2023/08/28 03:51:36;;;;;;;17.10;12.90;;;;;;;24.73;69.82;99038.33;105279;1257;60431;-72
2023/08/28 03:54:10;;;;;;;13.80;11.40;;;;;;;24.77;69.35;99039.34;105476;1254;72629;-73
2023/08/28 03:56:37;;;;;;;13.00;11.70;;;;;;;24.81;69.15;99045.36;105542;1260;69275;-74
2023/08/28 03:59:06;;;;;;;13.70;11.60;;;;;;;24.87;68.71;99043.38;105480;1254;72773;-72
2023/08/28 04:01:34;;;;;;;12.20;10.60;;;;;;;24.93;68.53;99042.24;105563;1261;60439;-71
2023/08/28 04:04:01;;;;;;;11.40;10.20;;;;;;;25.00;68.14;99038.90;105441;1270;60568;-73
2023/08/28 04:06:29;;;;;;;15.30;10.90;;;;;;;25.06;67.62;99037.39;105585;1257;73868;-72
2023/08/28 04:08:56;;;;;;;12.20;10.90;;;;;;;25.11;67.42;99028.13;105600;1254;69189;-71
2023/08/28 04:11:24;;;;;;;13.60;10.70;;;;;;;25.17;67.29;99027.39;105517;1260;73041;-70
2023/08/28 04:13:51;;;;;;;12.00;10.90;;;;;;;25.25;66.88;99027.73;105479;1254;60559;-68
2023/08/28 04:16:19;;;;;;;13.30;11.10;;;;;;;25.33;66.78;99030.19;105496;1257;60505;-70
2023/08/28 04:18:47;;;;;;;12.00;10.30;;;;;;;25.37;66.57;99029.28;105658;1254;73562;-72
2023/08/28 04:21:14;;;;;;;15.10;11.00;;;;;;;25.41;66.81;99027.35;105387;1254;70706;-72
2023/08/28 04:23:42;;;;;;;15.80;11.80;;;;;;;25.47;66.48;99024.55;105435;1254;72654;-72
2023/08/28 04:26:09;;;;;;;16.50;12.00;;;;;;;25.49;66.49;99023.16;105513;1254;60472;-70
2023/08/28 04:28:37;;;;;;;12.50;10.30;;;;;;;25.51;66.44;99025.70;105554;1257;60376;-71
2023/08/28 04:31:08;;;;;;;12.00;10.60;;;;;;;25.54;66.34;99026.77;105542;1254;72648;-72
2023/08/28 04:33:36;;;;;;;13.00;11.20;;;;;;;25.59;66.22;99029.45;105544;1260;70210;-72
2023/08/28 04:36:04;;;;;;;15.00;11.50;;;;;;;25.64;65.95;99027.94;105449;1258;72741;-70
2023/08/28 04:38:31;;;;;;;18.20;11.00;;;;;;;25.68;65.81;99032.14;105577;1254;61050;-72
2023/08/28 04:40:59;;;;;;;15.50;11.00;;;;;;;25.73;65.91;99034.44;105557;1254;60516;-73
2023/08/28 04:43:26;;;;;;;11.80;10.40;;;;;;;25.75;65.74;99029.86;105554;1259;73989;-73
2023/08/28 04:45:54;;;;;;;13.30;10.60;;;;;;;25.78;65.80;99027.77;105659;1257;70098;-74
2023/08/28 04:48:21;;;;;;;13.20;11.00;;;;;;;25.81;65.59;99029.04;105553;1257;71455;-71
2023/08/28 04:50:49;;;;;;;13.10;10.80;;;;;;;25.84;65.18;99027.43;105536;1254;60492;-72
2023/08/28 04:53:16;;;;;;;12.70;9.30;;;;;;;25.87;65.29;99026.54;105374;1253;60448;-71
2023/08/28 04:55:43;;;;;;;19.00;10.00;;;;;;;25.91;65.29;99026.67;105494;1254;73898;-72
2023/08/28 04:58:11;;;;;;;13.20;10.30;;;;;;;25.94;65.18;99026.52;105327;1257;70657;-73
2023/08/28 05:00:39;;;;;;;16.80;11.00;;;;;;;25.96;64.94;99029.96;105514;1254;72808;-71
2023/08/28 05:03:08;;;;;;;11.60;10.40;;;;;;;25.98;65.20;99029.24;105597;1254;60520;-72
2023/08/28 05:05:36;;;;;;;14.80;10.90;;;;;;;25.98;65.30;99029.52;105573;1257;60386;-72
2023/08/28 05:08:05;;;;;;;13.00;10.50;;;;;;;26.00;65.26;99027.09;105554;1256;73859;-72
2023/08/28 05:10:33;;;;;;;17.90;10.90;;;;;;;26.01;65.29;99028.83;105561;1254;70363;-70
2023/08/28 05:13:00;;;;;;;11.10;9.80;;;;;;;26.03;65.25;99029.19;105594;1257;71153;-73
2023/08/28 05:15:28;;;;;;;15.60;11.20;;;;;;;26.04;65.12;99023.96;105474;1256;60924;-73
2023/08/28 05:17:55;;;;;;;15.40;10.60;;;;;;;26.06;65.08;99025.58;105590;1254;60478;-72
2023/08/28 05:20:23;;;;;;;15.00;9.90;;;;;;;26.08;65.08;99020.65;105499;1256;73819;-73
2023/08/28 05:22:50;;;;;;;12.60;9.90;;;;;;;26.11;64.98;99022.52;105595;1254;70295;-73
2023/08/28 05:25:18;;;;;;;11.90;10.60;;;;;;;26.13;64.77;99023.48;105556;1254;71293;-71
2023/08/28 05:27:45;;;;;;;11.50;10.30;;;;;;;26.17;64.77;99020.77;105594;1257;60540;-72
2023/08/28 05:30:13;;;;;;;12.40;10.40;;;;;;;26.21;64.71;99022.96;105391;1254;60538;-71
2023/08/28 05:32:40;;;;;;;14.40;10.50;;;;;;;26.25;64.56;99029.17;105365;1254;73898;-71
2023/08/28 05:35:09;;;;;;;13.70;10.30;;;;;;;26.30;64.04;99033.37;105442;1260;68840;-72
2023/08/28 05:37:36;;;;;;;12.70;9.70;;;;;;;26.36;64.00;99033.80;105474;1259;72386;-72
2023/08/28 05:40:05;;;;;;;14.00;10.10;;;;;;;26.42;64.53;99034.59;105346;1254;60553;-71
2023/08/28 05:42:36;;;;;;;14.50;10.90;;;;;;;26.49;64.34;99035.45;105444;1259;60602;-73
2023/08/28 05:45:04;;;;;;;14.40;11.00;;;;;;;26.56;64.06;99041.25;105431;1260;73779;-72
2023/08/28 05:47:32;;;;;;;14.00;10.60;;;;;;;26.62;63.94;99044.69;105534;1254;70324;-72
2023/08/28 05:50:00;;;;;;;12.50;10.30;;;;;;;26.68;63.67;99044.83;105526;1254;71352;-71
2023/08/28 05:52:28;;;;;;;13.40;10.40;;;;;;;26.75;63.71;99045.45;105290;1254;60462;-74
2023/08/28 05:54:55;;;;;;;14.10;11.20;;;;;;;26.83;63.92;99041.98;105360;1256;60481;-76
2023/08/28 05:57:23;;;;;;;14.40;11.40;;;;;;;26.92;63.72;99044.42;105456;1254;72802;-74
2023/08/28 05:59:51;;;;;;;17.00;10.90;;;;;;;27.01;63.80;99040.15;105657;1258;70109;-73
2023/08/28 06:02:19;;;;;;;11.00;9.70;;;;;;;27.11;63.67;99037.11;105451;1254;72605;-73
2023/08/28 06:04:47;;;;;;;11.80;10.50;;;;;;;27.20;63.35;99034.63;105421;1259;60607;-75
2023/08/28 06:07:17;;;;;;;14.90;11.10;;;;;;;27.31;63.04;99031.84;105451;1257;60907;-75
2023/08/28 06:09:45;;;;;;;17.90;10.80;;;;;;;27.42;63.09;99029.91;105410;1256;73879;-75
2023/08/28 06:12:12;;;;;;;12.80;10.60;;;;;;;27.52;62.91;99031.99;105426;1257;70380;-73
2023/08/28 06:14:40;;;;;;;21.00;10.70;;;;;;;27.59;62.45;99032.48;105636;1254;72451;-74
2023/08/28 06:17:07;;;;;;;15.60;11.10;;;;;;;27.64;63.03;99029.52;105340;1259;60571;-74
2023/08/28 06:19:35;;;;;;;10.40;9.30;;;;;;;27.66;62.65;99034.88;105410;1259;60335;-74
2023/08/28 06:22:04;;;;;;;11.90;9.90;;;;;;;27.69;62.26;99033.02;105530;1257;73899;-74
2023/08/28 06:24:32;;;;;;;13.80;10.40;;;;;;;27.73;61.41;99031.11;105308;1260;69209;-75
2023/08/28 06:26:59;;;;;;;16.60;10.20;;;;;;;27.79;61.24;99032.48;105306;1258;71473;-74
2023/08/28 06:29:27;;;;;;;15.30;9.80;;;;;;;27.87;60.56;99032.14;105280;1254;60638;-73
2023/08/28 06:31:54;;;;;;;13.10;10.50;;;;;;;27.97;61.23;99036.12;105237;1259;60386;-76
2023/08/28 06:34:21;;;;;;;11.70;10.50;;;;;;;28.07;60.95;99038.46;105438;1257;74072;-74
2023/08/28 06:36:49;;;;;;;13.50;9.60;;;;;;;28.16;61.62;99037.59;105545;1254;69747;-74
2023/08/28 06:39:18;;;;;;;14.50;11.00;;;;;;;28.25;62.15;99036.91;106207;1256;72696;-73
2023/08/28 06:41:46;;;;;;;19.00;12.00;;;;;;;28.34;62.99;99032.15;106021;1253;60300;-73
2023/08/28 06:44:13;;;;;;;19.30;13.50;;;;;;;28.43;63.56;99030.45;106052;1253;60476;-73
2023/08/28 06:46:40;;;;;;;18.30;12.50;;;;;;;28.51;64.17;99031.35;105937;1253;72626;-73
2023/08/28 06:49:08;;;;;;;17.90;13.00;;;;;;;28.54;64.14;99033.88;105883;1259;68868;-73
2023/08/28 06:51:36;;;;;;;16.20;12.80;;;;;;;28.56;64.61;99036.06;106116;1254;73122;-74
2023/08/28 06:54:03;;;;;;;22.00;13.80;;;;;;;28.61;64.50;99034.38;106149;1253;60550;-73
2023/08/28 06:56:31;;;;;;;21.90;13.40;;;;;;;28.70;64.37;99034.31;106043;1254;60716;-73
2023/08/28 06:58:59;;;;;;;17.50;13.80;;;;;;;28.80;63.72;99033.05;106401;1253;72643;-75
2023/08/28 07:01:26;;;;;;;20.30;13.70;;;;;;;28.91;63.28;99032.33;106052;1254;69932;-73
2023/08/28 07:03:54;;;;;;;22.80;14.50;;;;;;;29.02;62.91;99033.16;106100;1253;72662;-73
2023/08/28 07:06:22;;;;;;;21.10;13.70;;;;;;;29.12;62.97;99035.92;106127;1256;60568;-74
2023/08/28 07:08:49;;;;;;;20.40;14.10;;;;;;;29.23;62.48;99033.49;105926;1256;60406;-74
2023/08/28 07:11:17;;;;;;;19.60;14.40;;;;;;;29.36;62.54;99027.89;105837;1259;72809;-74
2023/08/28 07:13:44;;;;;;;19.80;14.00;;;;;;;29.47;62.08;99028.81;105872;1254;70021;-73
2023/08/28 07:16:12;;;;;;;21.60;13.00;;;;;;;29.61;61.82;99026.85;105821;1252;72585;-73
2023/08/28 07:18:40;;;;;;;19.00;14.40;;;;;;;29.73;61.59;99028.91;106054;1254;60929;-71
2023/08/28 07:21:08;;;;;;;21.70;14.00;;;;;;;29.86;61.64;99030.05;105651;1254;60655;-74
2023/08/28 07:23:38;;;;;;;18.80;13.00;;;;;;;30.00;61.07;99030.13;105919;1256;72679;-76
2023/08/28 07:26:07;;;;;;;18.20;13.80;;;;;;;30.14;60.60;99032.23;105919;1257;69759;-74
2023/08/28 07:28:35;;;;;;;20.30;12.00;;;;;;;30.30;60.40;99032.40;106058;1253;72812;-74
2023/08/28 07:31:03;;;;;;;20.80;14.10;;;;;;;30.46;59.43;99028.15;105808;1253;60833;-73
2023/08/28 07:33:31;;;;;;;16.70;14.60;;;;;;;30.62;59.08;99030.87;105329;1260;60341;-73
2023/08/28 07:35:59;;;;;;;21.60;15.20;;;;;;;30.77;59.28;99027.20;105539;1254;74209;-73
2023/08/28 07:38:26;;;;;;;13.10;11.70;;;;;;;30.91;58.79;99026.08;105456;1257;68744;-73
2023/08/28 07:40:54;;;;;;;10.30;9.30;;;;;;;31.04;57.51;99021.82;105550;1254;72698;-73
2023/08/28 07:43:21;;;;;;;15.50;10.30;;;;;;;31.15;54.96;99015.10;105432;1254;60936;-73
2023/08/28 07:45:49;;;;;;;17.40;12.90;;;;;;;31.24;54.86;99008.13;105524;1254;60412;-73
2023/08/28 07:48:16;;;;;;;23.90;14.00;;;;;;;31.30;56.32;99006.92;105552;1254;72588;-73
2023/08/28 07:50:45;;;;;;;16.40;14.20;;;;;;;31.33;56.91;99000.46;105644;1257;69543;-72
2023/08/28 07:53:13;;;;;;;16.40;14.40;;;;;;;31.34;56.78;99003.95;105500;1254;72644;-73
2023/08/28 07:55:40;;;;;;;17.10;14.30;;;;;;;31.36;56.91;99005.25;105604;1254;60564;-74
2023/08/28 07:58:09;;;;;;;20.50;15.10;;;;;;;31.42;57.29;99007.60;105527;1254;60596;-73
2023/08/28 08:00:38;;;;;;;19.90;14.90;;;;;;;31.48;57.22;99004.39;105541;1254;72950;-72
2023/08/28 08:03:06;;;;;;;20.40;14.70;;;;;;;31.56;57.23;99004.25;105714;1254;70733;-74
2023/08/28 08:05:34;;;;;;;17.70;14.90;;;;;;;31.64;57.21;99006.40;105541;1254;72804;-74
2023/08/28 08:08:01;;;;;;;20.50;14.60;;;;;;;31.72;56.87;99005.48;105580;1253;60498;-73
2023/08/28 08:10:29;;;;;;;15.80;13.30;;;;;;;31.78;56.24;99003.69;105677;1255;60363;-73
2023/08/28 08:12:56;;;;;;;18.00;13.90;;;;;;;31.82;56.14;98997.82;105441;1257;73125;-74
2023/08/28 08:15:24;;;;;;;15.00;13.10;;;;;;;31.85;55.97;98998.52;105526;1256;70519;-74
2023/08/28 08:17:52;;;;;;;20.70;14.50;;;;;;;31.88;55.68;99004.97;105649;1254;72439;-76
2023/08/28 08:20:20;;;;;;;18.80;13.20;;;;;;;31.90;55.51;99008.91;105421;1254;61690;-75
2023/08/28 08:22:47;;;;;;;21.10;15.00;;;;;;;31.92;55.44;99014.64;105559;1254;60434;-74
2023/08/28 08:25:15;;;;;;;22.60;14.80;;;;;;;31.97;55.75;99021.35;105605;1256;73934;-74
2023/08/28 08:27:44;;;;;;;19.20;13.40;;;;;;;32.06;55.89;99012.89;107136;1254;68889;-74
2023/08/28 08:30:13;;;;;;;19.60;12.90;;;;;;;32.18;55.34;99010.27;106652;1254;72726;-74
2023/08/28 08:32:43;;;;;;;19.00;13.10;;;;;;;32.30;55.32;99006.98;105779;1254;60473;-72
2023/08/28 08:35:12;;;;;;;17.20;13.00;;;;;;;32.42;54.50;98999.19;105752;1256;60361;-74
2023/08/28 08:37:41;;;;;;;14.80;11.90;;;;;;;32.59;53.90;98995.96;105668;1254;74168;-74
2023/08/28 08:40:12;;;;;;;21.90;13.60;;;;;;;32.78;53.77;98992.30;105519;1256;69234;-73
2023/08/28 08:42:39;;;;;;;15.90;12.80;;;;;;;32.96;53.65;98993.77;105598;1254;71359;-72
2023/08/28 08:45:09;;;;;;;13.80;12.20;;;;;;;33.14;53.01;98991.35;105732;1254;60545;-71
2023/08/28 08:47:39;;;;;;;13.80;12.00;;;;;;;33.31;52.66;98994.42;105557;1254;60472;-73
2023/08/28 08:50:07;;;;;;;17.50;12.00;;;;;;;33.48;52.69;98988.05;105525;1254;75268;-73
2023/08/28 08:52:38;;;;;;;16.90;11.90;;;;;;;33.65;52.16;98988.17;105568;1254;70315;-73
2023/08/28 08:55:13;;;;;;;18.80;11.40;;;;;;;33.77;51.47;98991.29;105479;1260;63796;-70
2023/08/28 08:57:42;;;;;;;19.70;12.30;;;;;;;33.87;51.52;98993.83;105500;1254;60434;-72
2023/08/28 09:00:18;;;;;;;19.20;12.10;;;;;;;33.96;51.34;98995.20;105391;1253;216080;-73
2023/08/28 09:03:58;;;;;;;15.90;12.30;;;;;;;34.15;51.15;98992.17;102069;1297;600329;-74
2023/08/28 09:06:26;;;;;;;14.70;11.10;;;;;;;34.28;51.03;98993.29;104678;1267;62435;-74
2023/08/28 09:08:52;;;;;;;12.60;10.70;;;;;;;34.33;50.71;98993.23;104599;1268;59340;-73
2023/08/28 09:11:19;;;;;;;15.70;11.80;;;;;;;34.41;49.85;98997.98;104789;1266;63481;-74
2023/08/28 09:13:45;;;;;;;15.10;11.10;;;;;;;34.60;50.08;98999.58;104645;1264;70747;-73
2023/08/28 09:16:12;;;;;;;14.30;11.00;;;;;;;34.86;49.81;98993.52;104784;1260;204191;-74
2023/08/28 09:18:40;;;;;;;17.00;11.10;;;;;;;35.19;49.93;98992.21;105075;1260;60027;-73
2023/08/28 09:21:10;;;;;;;14.60;11.00;;;;;;;35.59;48.76;98994.91;105051;1261;59360;-73
2023/08/28 09:23:44;;;;;;;14.60;10.30;;;;;;;36.04;47.36;98992.99;105133;1260;63485;-72
2023/08/28 09:26:15;;;;;;;13.90;10.70;;;;;;;36.49;46.02;98989.18;105355;1264;61642;-71
2023/08/28 09:28:41;;;;;;;12.60;11.00;;;;;;;36.84;44.82;98989.89;105400;1258;64089;-74
2023/08/28 09:31:08;;;;;;;13.90;10.20;;;;;;;37.19;44.05;98994.36;105512;1257;59630;-74
2023/08/28 09:33:44;;;;;;;14.90;10.10;;;;;;;37.53;43.41;98994.34;105367;1257;59940;-74
2023/08/28 09:36:35;;;;;;;12.20;9.70;;;;;;;37.88;43.77;98982.38;105418;1258;64333;-74
2023/08/28 09:39:03;;;;;;;15.10;9.70;;;;;;;38.27;43.58;98976.20;105360;1260;61606;-72
2023/08/28 09:41:45;;;;;;;11.80;10.10;;;;;;;38.69;41.28;98968.90;105414;1259;64062;-72
2023/08/28 09:44:13;;;;;;;;;;;;;;;39.01;40.72;98965.77;105330;1260;59583;-73
2023/08/28 09:46:41;;;;;;;12.30;10.70;;;;;;;39.23;40.57;98965.95;105357;1258;60325;-73
2023/08/28 09:49:08;;;;;;;12.50;10.70;;;;;;;39.52;40.10;98966.75;105460;1260;64796;-74
2023/08/28 09:51:45;;;;;;;18.20;10.40;;;;;;;39.88;39.88;98968.61;105581;1258;61422;-74
2023/08/28 09:54:13;;;;;;;10.30;8.20;;;;;;;40.28;38.43;98970.84;105401;1259;64880;-74
2023/08/28 09:56:40;;;;;;;10.60;7.70;;;;;;;40.55;35.63;98974.44;105474;1259;59666;-74
2023/08/28 09:59:10;;;;;;;10.90;7.40;;;;;;;40.52;34.72;98975.14;105439;1255;59714;-75
2023/08/28 10:01:37;;;;;;;10.30;7.20;;;;;;;40.37;34.70;98974.57;105225;1262;64549;-74
2023/08/28 10:04:07;;;;;;;13.00;7.20;;;;;;;40.29;34.09;98973.94;105337;1258;61575;-74
2023/08/28 10:06:37;;;;;;;12.70;7.60;;;;;;;40.18;34.61;98972.98;105448;1257;64195;-74
2023/08/28 10:09:05;;;;;;;10.50;8.10;;;;;;;40.28;35.58;98969.73;105491;1256;59731;-74
2023/08/28 10:11:36;;;;;;;10.50;8.10;;;;;;;40.63;35.88;98969.71;105326;1257;60388;-75
2023/08/28 10:14:04;;;;;;;9.00;7.50;;;;;;;40.99;36.38;98966.23;105567;1257;64524;-74
2023/08/28 10:16:34;;;;;;;12.60;8.20;;;;;;;41.28;35.16;98961.27;105445;1259;61597;-75
2023/08/28 10:19:17;;;;;;;9.50;8.00;;;;;;;41.57;34.97;98957.90;105327;1257;63923;-73
2023/08/28 10:21:44;;;;;;;11.70;8.40;;;;;;;41.86;34.70;98961.69;105326;1259;59556;-74
2023/08/28 10:24:13;;;;;;;8.90;8.00;;;;;;;42.15;34.42;98964.48;105420;1266;61632;-76
2023/08/28 10:26:40;;;;;;;11.00;8.40;;;;;;;42.41;32.08;98964.13;105518;1257;64448;-74
2023/08/28 10:29:08;;;;;;;9.60;7.70;;;;;;;42.39;31.49;98963.64;105565;1254;61398;-75
2023/08/28 10:31:35;;;;;;;9.90;7.50;;;;;;;42.18;31.56;98962.72;105499;1257;64053;-74
2023/08/28 10:34:02;;;;;;;10.40;7.20;;;;;;;42.05;32.08;98956.84;105529;1254;59604;-75
2023/08/28 10:36:28;;;;;;;13.30;8.40;;;;;;;42.17;31.78;98960.58;105509;1257;59759;-76
2023/08/28 10:39:00;;;;;;;13.80;8.30;;;;;;;42.30;32.06;98962.70;105421;1260;73309;-77
2023/08/28 10:41:28;;;;;;;9.80;7.70;;;;;;;42.48;31.88;98964.91;105566;1257;61811;-75
2023/08/28 10:43:55;;;;;;;11.80;8.40;;;;;;;42.79;31.83;98964.52;105366;1267;63852;-75
2023/08/28 10:46:21;;;;;;;14.90;8.50;;;;;;;43.18;31.35;98956.85;105814;1257;59625;-77
2023/08/28 10:48:55;;;;;;;9.40;8.30;;;;;;;43.59;31.15;98951.02;105291;1254;59749;-76
2023/08/28 10:51:28;;;;;;;10.10;7.90;;;;;;;43.98;30.98;98948.63;105438;1261;64259;-73
2023/08/28 10:53:55;;;;;;;11.00;8.60;;;;;;;44.33;30.29;98950.63;105523;1256;60498;-75
2023/08/28 10:56:21;;;;;;;10.70;8.60;;;;;;;44.53;29.73;98942.99;105472;1260;64049;-76
2023/08/28 10:58:48;;;;;;;10.30;8.60;;;;;;;44.64;29.29;98936.00;105965;1254;59723;-76
2023/08/28 11:01:16;;;;;;;10.60;8.60;;;;;;;44.75;29.35;98929.53;105969;1255;59657;-76
2023/08/28 11:03:56;;;;;;;10.80;8.10;;;;;;;44.94;29.33;98929.07;105663;1256;64102;-75
2023/08/28 11:06:39;;;;;;;10.40;8.00;;;;;;;45.20;28.52;98922.54;105627;1256;61701;-77
2023/08/28 11:09:33;;;;;;;9.50;7.90;;;;;;;45.40;28.34;98922.66;106385;1257;63094;-73
2023/08/28 11:12:00;;;;;;;12.00;7.90;;;;;;;45.56;28.11;98919.77;105567;1254;59662;-75
2023/08/28 11:14:31;;;;;;;9.00;7.80;;;;;;;45.70;28.47;98917.80;105451;1257;59679;-76
2023/08/28 11:17:08;;;;;;;9.90;7.70;;;;;;;45.93;27.82;98916.67;105350;1256;64545;-73
2023/08/28 11:19:53;;;;;;;8.20;7.10;;;;;;;46.06;27.67;98917.35;105359;1261;61517;-73